createdAt,value
2022-10-15T00:02:49.197Z,12.20
2022-10-15T00:07:50.904Z,11.93
2022-10-15T00:12:52.520Z,12.35
2022-10-15T00:17:54.157Z,13.90
2022-10-15T00:22:55.701Z,12.20
2022-10-15T00:27:57.531Z,12.93
2022-10-15T00:33:00.773Z,13.50
2022-10-15T00:38:02.788Z,13.63
2022-10-15T00:43:09.346Z,13.18
2022-10-15T00:48:10.993Z,13.07
2022-10-15T00:53:12.659Z,13.90
2022-10-15T00:58:17.833Z,12.45
2022-10-15T01:03:20.215Z,14.20
2022-10-15T01:08:22.090Z,13.18
2022-10-15T01:13:37.915Z,12.50
2022-10-15T01:18:51.209Z,12.65
2022-10-15T01:24:14.115Z,12.90
2022-10-15T01:29:18.882Z,12.60
2022-10-15T01:34:27.806Z,13.07
2022-10-15T01:39:35.954Z,14.05
2022-10-15T01:44:44.568Z,13.38
2022-10-15T01:50:01.789Z,14.30
2022-10-15T01:55:08.968Z,13.18
2022-10-15T02:00:12.650Z,14.13
2022-10-15T02:05:20.606Z,13.38
2022-10-15T02:10:53.550Z,14.32
2022-10-15T02:16:04.277Z,15.30
2022-10-15T02:21:14.564Z,14.50
2022-10-15T02:26:17.335Z,14.18
2022-10-15T02:31:20.771Z,14.60
2022-10-15T02:36:22.604Z,15.43
2022-10-15T02:41:27.552Z,16.00
2022-10-15T02:46:29.430Z,15.68
2022-10-15T02:51:35.342Z,15.18
2022-10-15T02:56:39.333Z,15.03
2022-10-15T03:01:41.538Z,14.77
2022-10-15T03:06:44.269Z,14.27
2022-10-15T03:11:46.909Z,14.88
2022-10-15T03:16:48.772Z,15.35
2022-10-15T03:21:51.618Z,14.82
2022-10-15T03:26:53.921Z,15.30
2022-10-15T03:31:55.646Z,14.55
2022-10-15T03:36:57.511Z,15.25
2022-10-15T03:41:59.519Z,16.15
2022-10-15T03:47:08.780Z,16.30
2022-10-15T03:52:18.714Z,16.58
2022-10-15T03:57:22.073Z,15.98
2022-10-15T04:02:32.499Z,15.43
2022-10-15T04:07:34.597Z,16.58
2022-10-15T04:12:36.332Z,15.57
2022-10-15T04:17:38.400Z,16.80
2022-10-15T04:22:39.979Z,15.02
2022-10-15T04:27:43.085Z,16.98
2022-10-15T04:32:51.899Z,15.05
2022-10-15T04:37:53.629Z,15.30
2022-10-15T04:42:55.237Z,17.13
2022-10-15T04:47:57.196Z,16.02
2022-10-15T04:52:59.863Z,15.85
2022-10-15T04:58:03.312Z,16.58
2022-10-15T05:03:06.570Z,16.15
2022-10-15T05:08:30.045Z,15.68
2022-10-15T05:13:44.421Z,16.10
2022-10-15T05:18:48.507Z,15.75
2022-10-15T05:23:50.674Z,15.50
2022-10-15T05:29:12.254Z,14.25
2022-10-15T05:34:13.917Z,14.50
2022-10-15T05:39:21.756Z,14.23
2022-10-15T05:44:23.333Z,14.75
2022-10-15T05:49:24.890Z,14.20
2022-10-15T05:54:35.653Z,13.90
2022-10-15T05:59:37.257Z,13.82
2022-10-15T06:04:38.870Z,13.77
2022-10-15T06:09:40.493Z,13.93
2022-10-15T06:14:42.074Z,15.13
2022-10-15T06:19:43.646Z,14.07
2022-10-15T06:24:46.176Z,15.15
2022-10-15T06:29:47.792Z,13.65
2022-10-15T06:34:49.357Z,14.02
2022-10-15T06:39:51.315Z,13.25
2022-10-15T06:44:52.848Z,13.27
2022-10-15T06:49:54.403Z,13.25
2022-10-15T06:54:55.930Z,12.80
2022-10-15T06:59:57.480Z,13.18
2022-10-15T07:04:59.031Z,16.63
2022-10-15T07:10:00.659Z,12.27
2022-10-15T07:15:02.232Z,13.65
2022-10-15T07:20:04.210Z,11.93
2022-10-15T07:25:06.002Z,12.45
2022-10-15T07:30:08.867Z,11.10
2022-10-15T07:35:10.482Z,12.48
2022-10-15T07:40:12.382Z,10.52
2022-10-15T07:45:14.308Z,10.93
2022-10-15T07:50:16.265Z,10.25
2022-10-15T07:55:19.345Z,9.57
2022-10-15T08:00:20.964Z,9.75
2022-10-15T08:05:22.619Z,8.30
2022-10-15T08:10:24.187Z,8.60
2022-10-15T08:15:25.726Z,7.72
2022-10-15T08:20:27.265Z,8.27
2022-10-15T08:25:29.102Z,7.22
2022-10-15T08:30:30.632Z,7.70
2022-10-15T08:35:35.376Z,7.97
2022-10-15T08:40:37.224Z,7.32
2022-10-15T08:45:45.141Z,6.68
2022-10-15T08:51:02.583Z,7.32
2022-10-15T08:56:12.212Z,6.68
2022-10-15T09:01:18.591Z,6.25
2022-10-15T09:06:30.730Z,6.63
2022-10-15T09:11:51.465Z,5.38
2022-10-15T09:16:53.077Z,5.70
2022-10-15T09:21:55.463Z,5.68
2022-10-15T09:27:08.789Z,5.40
2022-10-15T09:32:34.100Z,4.93
2022-10-15T09:37:48.684Z,3.90
2022-10-15T09:42:51.941Z,4.00
2022-10-15T09:48:00.117Z,3.45
2022-10-15T09:53:28.231Z,3.63
2022-10-15T09:58:56.824Z,3.45
2022-10-15T10:04:21.383Z,2.75
2022-10-15T10:09:38.786Z,3.42
2022-10-15T10:14:46.963Z,2.83
2022-10-15T10:20:24.654Z,2.85
2022-10-15T10:25:34.337Z,3.60
2022-10-15T10:30:38.722Z,3.45
2022-10-15T10:35:50.593Z,3.25
2022-10-15T10:41:06.841Z,4.50
2022-10-15T10:46:14.786Z,2.90
2022-10-15T10:51:25.057Z,3.85
2022-10-15T10:56:35.522Z,3.90
2022-10-15T11:07:41.473Z,0.85
2022-10-15T11:12:56.484Z,0.68
2022-10-15T11:18:27.003Z,0.55
2022-10-15T11:24:05.568Z,0.50
2022-10-15T11:29:10.865Z,0.60
2022-10-15T11:34:47.169Z,0.40
2022-10-15T11:40:26.230Z,0.43
2022-10-15T11:45:54.005Z,0.30
2022-10-15T11:51:06.388Z,0.38
2022-10-15T11:56:26.704Z,2.15
2022-10-15T12:01:41.951Z,0.40
2022-10-15T12:06:50.122Z,0.68
2022-10-15T12:11:57.582Z,0.20
2022-10-15T12:22:39.342Z,0.20
2022-10-15T12:27:41.581Z,0.28
2022-10-15T12:32:48.848Z,0.20
2022-10-15T12:37:51.152Z,0.30
2022-10-15T12:43:04.049Z,0.22
2022-10-15T12:48:07.930Z,0.30
2022-10-15T12:53:28.723Z,0.20
2022-10-15T12:58:39.904Z,0.38
2022-10-15T13:03:50.690Z,0.50
2022-10-15T13:08:58.819Z,0.20
2022-10-15T13:14:03.585Z,0.20
2022-10-15T13:19:05.223Z,0.45
2022-10-15T13:24:11.891Z,0.15
2022-10-15T13:29:22.415Z,0.20
2022-10-15T13:34:33.109Z,0.28
2022-10-15T13:39:40.066Z,0.25
2022-10-15T13:44:42.771Z,0.28
2022-10-15T13:49:44.382Z,0.13
2022-10-15T13:54:47.042Z,0.20
2022-10-15T13:59:48.680Z,0.30
2022-10-15T14:04:50.228Z,0.30
2022-10-15T14:09:52.387Z,0.50
2022-10-15T14:14:53.948Z,0.38
2022-10-15T14:20:25.256Z,0.50
2022-10-15T14:25:24.882Z,0.43
2022-10-15T14:30:36.691Z,0.50
2022-10-15T14:35:38.778Z,0.30
2022-10-15T14:40:40.574Z,0.40
2022-10-15T14:45:50.905Z,0.30
2022-10-15T14:50:53.335Z,0.32
2022-10-15T14:56:02.105Z,0.38
2022-10-15T15:01:07.149Z,0.30
2022-10-15T15:06:09.767Z,0.40
2022-10-15T15:11:15.107Z,0.40
2022-10-15T15:16:18.144Z,0.60
2022-10-15T15:21:22.343Z,1.15
2022-10-15T15:26:24.589Z,1.15
2022-10-15T15:31:26.166Z,0.90
2022-10-15T15:36:27.709Z,1.10
2022-10-15T15:41:29.356Z,1.00
2022-10-15T15:46:31.251Z,0.98
2022-10-15T15:51:32.900Z,0.90
2022-10-15T15:56:34.978Z,0.75
2022-10-15T16:01:36.760Z,0.98
2022-10-15T16:06:39.578Z,0.80
2022-10-15T16:11:41.122Z,1.13
2022-10-15T16:16:42.952Z,1.00
2022-10-15T16:21:44.596Z,1.73
2022-10-15T16:26:46.307Z,2.47
2022-10-15T16:31:47.909Z,2.60
2022-10-15T16:36:49.608Z,2.97
2022-10-15T16:41:51.212Z,2.85
2022-10-15T16:46:52.778Z,10.32
2022-10-15T16:51:54.456Z,46.05
2022-10-15T16:56:56.044Z,6.28
2022-10-15T17:01:58.054Z,5.18
2022-10-15T17:06:59.592Z,5.55
2022-10-15T17:12:01.118Z,6.55
2022-10-15T17:17:02.790Z,5.82
2022-10-15T17:22:04.366Z,4.88
2022-10-15T17:27:06.024Z,4.72
2022-10-15T17:32:07.673Z,4.03
2022-10-15T17:37:09.585Z,4.88
2022-10-15T17:42:13.160Z,4.72
2022-10-15T17:47:14.753Z,5.18
2022-10-15T17:52:16.375Z,5.45
2022-10-15T17:57:17.921Z,4.57
2022-10-15T18:02:19.695Z,4.55
2022-10-15T18:07:23.127Z,3.20
2022-10-15T18:12:24.898Z,29.23
2022-10-15T18:17:26.753Z,30.42
2022-10-15T18:22:29.992Z,14.75
2022-10-15T18:27:31.609Z,8.57
2022-10-15T18:37:40.824Z,8.57
2022-10-15T18:42:46.296Z,6.50
2022-10-15T18:47:54.567Z,6.57
2022-10-15T18:52:56.077Z,6.32
2022-10-15T18:57:57.714Z,6.00
2022-10-15T19:02:59.828Z,6.82
2022-10-15T19:08:03.998Z,7.00
2022-10-15T19:13:05.580Z,7.28
2022-10-15T19:18:11.282Z,7.95
2022-10-15T19:23:13.098Z,7.03
2022-10-15T19:28:15.093Z,9.65
2022-10-15T19:33:18.585Z,20.63
2022-10-15T19:38:20.418Z,19.52
2022-10-15T19:43:23.756Z,17.92
2022-10-15T19:48:25.387Z,15.57
2022-10-15T19:53:26.946Z,11.85
2022-10-15T19:58:29.387Z,9.52
2022-10-15T20:03:31.087Z,8.07
2022-10-15T20:08:37.071Z,7.97
2022-10-15T20:13:38.812Z,10.60
2022-10-15T20:18:41.154Z,8.35
2022-10-15T20:23:44.334Z,7.10
2022-10-15T20:28:46.732Z,9.63
2022-10-15T20:33:48.421Z,9.07
2022-10-15T20:38:50.049Z,6.95
2022-10-15T20:43:54.896Z,6.53
2022-10-15T20:48:58.187Z,6.50
2022-10-15T20:53:59.924Z,6.35
2022-10-15T20:59:03.935Z,6.85
2022-10-15T21:04:06.290Z,7.85
2022-10-15T21:09:08.126Z,8.05
2022-10-15T21:14:11.714Z,16.40
2022-10-15T21:19:13.728Z,13.23
2022-10-15T21:24:15.225Z,12.88
2022-10-15T21:29:17.454Z,11.88
2022-10-15T21:34:23.134Z,10.55
2022-10-15T21:39:24.707Z,10.70
2022-10-15T21:44:26.287Z,9.55
2022-10-15T21:49:27.845Z,8.50
2022-10-15T21:54:29.566Z,9.10
2022-10-15T21:59:31.146Z,7.90
2022-10-15T22:04:34.807Z,8.57
2022-10-15T22:09:36.638Z,8.30
2022-10-15T22:14:38.261Z,9.00
2022-10-15T22:19:39.765Z,9.50
2022-10-15T22:24:41.447Z,7.97
2022-10-15T22:29:44.113Z,9.48
2022-10-15T22:34:45.713Z,9.15
2022-10-15T22:39:47.291Z,8.77
2022-10-15T22:44:48.819Z,9.75
2022-10-15T22:49:50.448Z,10.75
2022-10-15T22:54:52.081Z,10.43
2022-10-15T22:59:55.955Z,9.88
2022-10-15T23:05:00.283Z,9.93
2022-10-15T23:10:01.837Z,13.27
2022-10-15T23:15:04.339Z,14.00
2022-10-15T23:20:06.345Z,15.02
2022-10-15T23:25:08.266Z,17.95
2022-10-15T23:30:23.779Z,23.08
2022-10-15T23:35:26.135Z,17.85
2022-10-15T23:40:27.817Z,14.57
2022-10-15T23:45:29.289Z,12.75
2022-10-15T23:50:35.291Z,11.50
2022-10-15T23:55:40.725Z,11.13
